sensor_id;sensor_type;location;lat;lon;timestamp;pressure;altitude;pressure_sealevel;temperature;humidity
19600;BME280;9947;57.722;12.012;2023-07-20T00:02:15;100053.50;;;13.24;100.00
19600;BME280;9947;57.722;12.012;2023-07-20T00:04:44;100048.69;;;13.18;100.00
19600;BME280;9947;57.722;12.012;2023-07-20T00:07:12;100052.09;;;13.20;100.00
19600;BME280;9947;57.722;12.012;2023-07-20T00:09:43;100047.81;;;13.18;100.00
19600;BME280;9947;57.722;12.012;2023-07-20T00:12:11;100051.94;;;13.22;100.00
19600;BME280;9947;57.722;12.012;2023-07-20T00:14:38;100052.09;;;13.20;100.00
19600;BME280;9947;57.722;12.012;2023-07-20T00:17:06;100049.69;;;13.17;100.00
19600;BME280;9947;57.722;12.012;2023-07-20T00:19:34;100041.38;;;13.19;100.00
19600;BME280;9947;57.722;12.012;2023-07-20T00:22:00;100046.66;;;13.20;100.00
19600;BME280;9947;57.722;12.012;2023-07-20T00:24:30;100039.06;;;13.24;100.00
19600;BME280;9947;57.722;12.012;2023-07-20T00:27:00;100038.06;;;13.25;100.00
19600;BME280;9947;57.722;12.012;2023-07-20T00:29:28;100042.34;;;13.27;100.00
19600;BME280;9947;57.722;12.012;2023-07-20T00:31:55;100023.22;;;13.29;100.00
19600;BME280;9947;57.722;12.012;2023-07-20T00:34:22;100035.63;;;13.32;100.00
19600;BME280;9947;57.722;12.012;2023-07-20T00:36:54;100032.59;;;13.35;100.00
19600;BME280;9947;57.722;12.012;2023-07-20T00:39:25;100028.31;;;13.32;100.00
19600;BME280;9947;57.722;12.012;2023-07-20T00:41:53;100019.91;;;13.25;100.00
19600;BME280;9947;57.722;12.012;2023-07-20T00:44:22;100027.03;;;13.26;100.00
19600;BME280;9947;57.722;12.012;2023-07-20T00:46:50;100025.50;;;13.24;100.00
19600;BME280;9947;57.722;12.012;2023-07-20T00:49:22;100027.19;;;13.25;100.00
19600;BME280;9947;57.722;12.012;2023-07-20T00:51:51;100019.53;;;13.20;100.00
19600;BME280;9947;57.722;12.012;2023-07-20T00:54:22;100014.25;;;13.19;100.00
19600;BME280;9947;57.722;12.012;2023-07-20T00:56:53;100019.22;;;13.23;100.00
19600;BME280;9947;57.722;12.012;2023-07-20T00:59:24;100011.88;;;13.34;100.00
19600;BME280;9947;57.722;12.012;2023-07-20T01:01:51;100012.50;;;13.27;100.00
19600;BME280;9947;57.722;12.012;2023-07-20T01:04:21;100014.91;;;13.31;100.00
19600;BME280;9947;57.722;12.012;2023-07-20T01:07:02;100015.91;;;13.30;100.00
19600;BME280;9947;57.722;12.012;2023-07-20T01:09:40;100022.63;;;13.25;100.00
19600;BME280;9947;57.722;12.012;2023-07-20T01:12:13;100010.38;;;13.21;100.00
19600;BME280;9947;57.722;12.012;2023-07-20T01:14:46;100015.94;;;13.20;100.00
19600;BME280;9947;57.722;12.012;2023-07-20T01:17:16;100017.66;;;13.21;100.00
19600;BME280;9947;57.722;12.012;2023-07-20T01:19:43;100015.38;;;13.16;100.00
19600;BME280;9947;57.722;12.012;2023-07-20T01:22:26;100012.13;;;13.13;100.00
19600;BME280;9947;57.722;12.012;2023-07-20T01:25:25;100016.00;;;13.10;100.00
19600;BME280;9947;57.722;12.012;2023-07-20T01:28:16;100017.38;;;13.14;100.00
19600;BME280;9947;57.722;12.012;2023-07-20T01:30:59;100012.25;;;13.11;100.00
19600;BME280;9947;57.722;12.012;2023-07-20T01:33:31;100016.00;;;13.10;100.00
19600;BME280;9947;57.722;12.012;2023-07-20T01:36:00;100019.88;;;13.08;100.00
19600;BME280;9947;57.722;12.012;2023-07-20T01:38:29;100009.00;;;13.08;100.00
19600;BME280;9947;57.722;12.012;2023-07-20T01:40:57;100007.44;;;13.05;100.00
19600;BME280;9947;57.722;12.012;2023-07-20T01:43:29;100002.41;;;13.10;100.00
19600;BME280;9947;57.722;12.012;2023-07-20T01:45:56;100005.28;;;13.09;100.00
19600;BME280;9947;57.722;12.012;2023-07-20T01:48:24;100006.44;;;13.06;100.00
19600;BME280;9947;57.722;12.012;2023-07-20T01:50:52;100013.19;;;13.02;100.00
19600;BME280;9947;57.722;12.012;2023-07-20T01:53:23;100006.06;;;13.01;100.00
19600;BME280;9947;57.722;12.012;2023-07-20T01:55:52;100006.91;;;13.02;100.00
19600;BME280;9947;57.722;12.012;2023-07-20T01:58:22;100003.63;;;12.98;100.00
19600;BME280;9947;57.722;12.012;2023-07-20T02:00:50;99999.81;;;12.91;100.00
19600;BME280;9947;57.722;12.012;2023-07-20T02:03:17;99998.94;;;12.90;100.00
19600;BME280;9947;57.722;12.012;2023-07-20T02:05:44;99999.66;;;12.92;100.00
19600;BME280;9947;57.722;12.012;2023-07-20T02:08:17;99998.09;;;12.90;100.00
19600;BME280;9947;57.722;12.012;2023-07-20T02:10:45;99999.41;;;12.86;100.00
19600;BME280;9947;57.722;12.012;2023-07-20T02:13:15;99985.84;;;12.86;100.00
19600;BME280;9947;57.722;12.012;2023-07-20T02:15:43;99995.84;;;12.85;100.00
19600;BME280;9947;57.722;12.012;2023-07-20T02:18:13;99996.00;;;12.84;100.00
19600;BME280;9947;57.722;12.012;2023-07-20T02:20:41;99996.38;;;12.89;100.00
19600;BME280;9947;57.722;12.012;2023-07-20T02:23:14;99990.66;;;12.92;100.00
19600;BME280;9947;57.722;12.012;2023-07-20T02:25:45;99994.22;;;12.92;100.00
19600;BME280;9947;57.722;12.012;2023-07-20T02:28:13;99984.38;;;12.91;100.00
19600;BME280;9947;57.722;12.012;2023-07-20T02:30:40;99991.50;;;12.92;100.00
19600;BME280;9947;57.722;12.012;2023-07-20T02:33:09;99986.09;;;12.92;100.00
19600;BME280;9947;57.722;12.012;2023-07-20T02:35:36;99990.50;;;12.93;100.00
19600;BME280;9947;57.722;12.012;2023-07-20T02:38:11;99992.06;;;12.96;100.00
19600;BME280;9947;57.722;12.012;2023-07-20T02:40:39;99992.06;;;12.96;100.00
19600;BME280;9947;57.722;12.012;2023-07-20T02:43:09;100001.91;;;12.97;100.00
19600;BME280;9947;57.722;12.012;2023-07-20T02:45:40;99994.63;;;12.97;100.00
19600;BME280;9947;57.722;12.012;2023-07-20T02:48:08;100001.19;;;12.95;100.00
19600;BME280;9947;57.722;12.012;2023-07-20T02:50:40;99990.81;;;12.90;100.00
19600;BME280;9947;57.722;12.012;2023-07-20T02:53:06;99991.66;;;12.91;100.00
19600;BME280;9947;57.722;12.012;2023-07-20T02:55:38;99988.94;;;12.91;100.00
19600;BME280;9947;57.722;12.012;2023-07-20T02:58:05;99984.38;;;12.91;100.00
19600;BME280;9947;57.722;12.012;2023-07-20T03:05:36;99978.41;;;12.88;100.00
19600;BME280;9947;57.722;12.012;2023-07-20T03:10:38;99975.00;;;12.86;100.00
19600;BME280;9947;57.722;12.012;2023-07-20T03:13:07;99973.69;;;12.90;100.00
19600;BME280;9947;57.722;12.012;2023-07-20T03:15:34;99977.56;;;12.87;100.00
19600;BME280;9947;57.722;12.012;2023-07-20T03:20:29;99966.09;;;12.93;100.00
19600;BME280;9947;57.722;12.012;2023-07-20T03:22:57;99971.38;;;12.95;100.00
19600;BME280;9947;57.722;12.012;2023-07-20T03:25:26;99976.09;;;12.93;100.00
19600;BME280;9947;57.722;12.012;2023-07-20T03:27:54;99977.63;;;12.95;100.00
19600;BME280;9947;57.722;12.012;2023-07-20T03:30:21;99972.91;;;12.97;100.00
19600;BME280;9947;57.722;12.012;2023-07-20T03:32:50;99974.47;;;13.00;100.00
19600;BME280;9947;57.722;12.012;2023-07-20T03:35:17;99977.19;;;13.00;100.00
19600;BME280;9947;57.722;12.012;2023-07-20T03:37:44;99986.31;;;12.99;100.00
19600;BME280;9947;57.722;12.012;2023-07-20T03:40:13;99985.47;;;12.98;100.00
19600;BME280;9947;57.722;12.012;2023-07-20T03:42:41;99976.06;;;13.03;100.00
19600;BME280;9947;57.722;12.012;2023-07-20T03:47:33;99983.63;;;12.99;100.00
19600;BME280;9947;57.722;12.012;2023-07-20T03:50:01;99978.34;;;12.97;100.00
19600;BME280;9947;57.722;12.012;2023-07-20T03:52:31;99977.50;;;12.97;100.00
19600;BME280;9947;57.722;12.012;2023-07-20T03:54:58;99982.13;;;12.87;100.00
19600;BME280;9947;57.722;12.012;2023-07-20T03:57:26;99984.75;;;12.79;100.00
19600;BME280;9947;57.722;12.012;2023-07-20T03:59:54;99980.31;;;12.78;100.00
19600;BME280;9947;57.722;12.012;2023-07-20T04:02:22;99977.16;;;12.82;100.00
19600;BME280;9947;57.722;12.012;2023-07-20T04:04:51;99976.53;;;12.88;100.00
19600;BME280;9947;57.722;12.012;2023-07-20T04:07:17;99979.41;;;12.87;100.00
19600;BME280;9947;57.722;12.012;2023-07-20T04:09:45;99971.72;;;12.82;100.00
19600;BME280;9947;57.722;12.012;2023-07-20T04:12:11;99967.47;;;12.80;100.00
19600;BME280;9947;57.722;12.012;2023-07-20T04:14:40;99965.84;;;12.87;100.00
19600;BME280;9947;57.722;12.012;2023-07-20T04:17:07;99968.25;;;12.90;100.00
19600;BME280;9947;57.722;12.012;2023-07-20T04:19:34;99963.22;;;12.95;100.00
19600;BME280;9947;57.722;12.012;2023-07-20T04:22:06;99964.63;;;12.99;100.00
19600;BME280;9947;57.722;12.012;2023-07-20T04:24:34;99966.34;;;13.00;100.00
19600;BME280;9947;57.722;12.012;2023-07-20T04:27:01;99965.75;;;13.06;100.00
19600;BME280;9947;57.722;12.012;2023-07-20T04:29:28;99963.28;;;13.13;100.00
19600;BME280;9947;57.722;12.012;2023-07-20T04:31:56;99969.97;;;13.18;100.00
19600;BME280;9947;57.722;12.012;2023-07-20T04:34:24;99968.75;;;13.48;100.00
19600;BME280;9947;57.722;12.012;2023-07-20T04:36:50;99967.91;;;13.66;100.00
19600;BME280;9947;57.722;12.012;2023-07-20T04:39:19;99962.91;;;13.79;100.00
19600;BME280;9947;57.722;12.012;2023-07-20T04:41:47;99968.00;;;14.00;100.00
19600;BME280;9947;57.722;12.012;2023-07-20T04:44:15;99965.25;;;13.92;100.00
19600;BME280;9947;57.722;12.012;2023-07-20T04:46:42;99974.66;;;15.25;100.00
19600;BME280;9947;57.722;12.012;2023-07-20T04:49:11;99963.94;;;17.63;100.00
19600;BME280;9947;57.722;12.012;2023-07-20T04:51:39;99974.59;;;19.66;93.83
19600;BME280;9947;57.722;12.012;2023-07-20T04:54:08;99968.78;;;19.97;81.17
19600;BME280;9947;57.722;12.012;2023-07-20T04:56:35;99964.66;;;18.40;94.13
19600;BME280;9947;57.722;12.012;2023-07-20T05:01:27;99974.69;;;16.72;100.00
19600;BME280;9947;57.722;12.012;2023-07-20T05:03:54;99972.22;;;16.05;100.00
19600;BME280;9947;57.722;12.012;2023-07-20T05:08:52;99978.47;;;14.98;100.00
19600;BME280;9947;57.722;12.012;2023-07-20T05:11:20;99965.09;;;14.71;100.00
19600;BME280;9947;57.722;12.012;2023-07-20T05:13:47;99970.16;;;14.58;100.00
19600;BME280;9947;57.722;12.012;2023-07-20T05:16:14;99972.56;;;14.17;100.00
19600;BME280;9947;57.722;12.012;2023-07-20T05:18:42;99972.09;;;14.22;100.00
19600;BME280;9947;57.722;12.012;2023-07-20T05:21:10;99974.47;;;14.76;100.00
19600;BME280;9947;57.722;12.012;2023-07-20T05:23:38;99966.81;;;17.93;100.00
19600;BME280;9947;57.722;12.012;2023-07-20T05:26:06;99974.91;;;19.41;88.92
19600;BME280;9947;57.722;12.012;2023-07-20T05:28:33;99969.09;;;18.27;94.37
19600;BME280;9947;57.722;12.012;2023-07-20T05:31:02;99974.91;;;17.01;100.00
19600;BME280;9947;57.722;12.012;2023-07-20T05:33:30;99967.78;;;15.96;100.00
19600;BME280;9947;57.722;12.012;2023-07-20T05:35:58;99977.09;;;15.53;100.00
19600;BME280;9947;57.722;12.012;2023-07-20T05:38:25;99969.34;;;15.16;100.00
19600;BME280;9947;57.722;12.012;2023-07-20T05:40:58;99968.25;;;14.92;100.00
19600;BME280;9947;57.722;12.012;2023-07-20T05:43:28;99969.22;;;14.83;100.00
19600;BME280;9947;57.722;12.012;2023-07-20T05:45:55;99981.09;;;14.74;100.00
19600;BME280;9947;57.722;12.012;2023-07-20T05:48:23;99964.59;;;14.75;100.00
19600;BME280;9947;57.722;12.012;2023-07-20T05:50:50;99963.88;;;14.65;100.00
19600;BME280;9947;57.722;12.012;2023-07-20T05:55:52;99968.47;;;15.65;100.00
19600;BME280;9947;57.722;12.012;2023-07-20T05:58:19;99982.69;;;15.43;100.00
19600;BME280;9947;57.722;12.012;2023-07-20T06:00:49;99973.56;;;15.02;100.00
19600;BME280;9947;57.722;12.012;2023-07-20T06:03:16;99978.72;;;14.79;100.00
19600;BME280;9947;57.722;12.012;2023-07-20T06:05:43;99972.72;;;14.67;100.00
19600;BME280;9947;57.722;12.012;2023-07-20T06:10:36;99967.84;;;16.59;100.00
19600;BME280;9947;57.722;12.012;2023-07-20T06:15:31;99964.25;;;18.66;100.00
19600;BME280;9947;57.722;12.012;2023-07-20T06:18:01;99967.75;;;17.85;100.00
19600;BME280;9947;57.722;12.012;2023-07-20T06:20:29;99965.09;;;16.76;100.00
19600;BME280;9947;57.722;12.012;2023-07-20T06:22:56;99968.91;;;16.50;100.00
19600;BME280;9947;57.722;12.012;2023-07-20T06:25:24;99950.56;;;15.79;100.00
19600;BME280;9947;57.722;12.012;2023-07-20T06:27:52;99961.22;;;15.32;100.00
19600;BME280;9947;57.722;12.012;2023-07-20T06:30:19;99957.38;;;14.92;100.00
19600;BME280;9947;57.722;12.012;2023-07-20T06:32:46;99966.22;;;14.94;100.00
19600;BME280;9947;57.722;12.012;2023-07-20T06:35:17;99964.06;;;14.72;100.00
19600;BME280;9947;57.722;12.012;2023-07-20T06:37:44;99966.09;;;14.62;100.00
19600;BME280;9947;57.722;12.012;2023-07-20T06:42:43;99964.38;;;14.61;100.00
19600;BME280;9947;57.722;12.012;2023-07-20T06:45:10;99959.91;;;14.86;100.00
19600;BME280;9947;57.722;12.012;2023-07-20T06:47:38;99960.28;;;15.07;100.00
19600;BME280;9947;57.722;12.012;2023-07-20T06:52:40;99961.53;;;15.21;100.00
19600;BME280;9947;57.722;12.012;2023-07-20T06:57:33;99963.09;;;17.09;100.00
19600;BME280;9947;57.722;12.012;2023-07-20T07:02:36;99962.53;;;17.75;100.00
19600;BME280;9947;57.722;12.012;2023-07-20T07:07:28;99946.09;;;16.27;100.00
19600;BME280;9947;57.722;12.012;2023-07-20T07:09:58;99962.50;;;15.94;100.00
19600;BME280;9947;57.722;12.012;2023-07-20T07:12:25;99958.59;;;15.97;100.00
19600;BME280;9947;57.722;12.012;2023-07-20T07:14:54;99961.28;;;16.29;100.00
19600;BME280;9947;57.722;12.012;2023-07-20T07:17:21;99961.06;;;16.47;100.00
19600;BME280;9947;57.722;12.012;2023-07-20T07:19:48;99955.03;;;16.76;100.00
19600;BME280;9947;57.722;12.012;2023-07-20T07:22:18;99955.19;;;16.83;100.00
19600;BME280;9947;57.722;12.012;2023-07-20T07:24:45;99949.97;;;17.04;100.00
19600;BME280;9947;57.722;12.012;2023-07-20T07:27:13;99962.41;;;16.68;100.00
19600;BME280;9947;57.722;12.012;2023-07-20T07:29:42;99952.59;;;16.89;100.00
19600;BME280;9947;57.722;12.012;2023-07-20T07:34:36;99954.00;;;17.47;100.00
19600;BME280;9947;57.722;12.012;2023-07-20T07:39:28;99961.66;;;17.21;100.00
19600;BME280;9947;57.722;12.012;2023-07-20T07:41:56;99960.50;;;16.76;100.00
19600;BME280;9947;57.722;12.012;2023-07-20T07:44:26;99959.50;;;16.69;100.00
19600;BME280;9947;57.722;12.012;2023-07-20T07:46:53;99967.84;;;16.76;100.00
19600;BME280;9947;57.722;12.012;2023-07-20T07:49:21;99974.69;;;17.11;100.00
19600;BME280;9947;57.722;12.012;2023-07-20T07:51:48;99962.94;;;17.02;100.00
19600;BME280;9947;57.722;12.012;2023-07-20T07:54:15;99967.84;;;16.76;100.00
19600;BME280;9947;57.722;12.012;2023-07-20T07:56:42;99967.66;;;16.77;100.00
19600;BME280;9947;57.722;12.012;2023-07-20T07:59:11;99963.22;;;16.76;100.00
19600;BME280;9947;57.722;12.012;2023-07-20T08:01:41;99963.00;;;16.86;100.00
19600;BME280;9947;57.722;12.012;2023-07-20T08:04:08;99966.94;;;17.22;100.00
19600;BME280;9947;57.722;12.012;2023-07-20T08:06:36;99960.69;;;17.68;100.00
19600;BME280;9947;57.722;12.012;2023-07-20T08:11:29;99971.03;;;17.26;100.00
19600;BME280;9947;57.722;12.012;2023-07-20T08:13:59;99970.72;;;17.21;100.00
19600;BME280;9947;57.722;12.012;2023-07-20T08:16:26;99974.00;;;17.09;100.00
19600;BME280;9947;57.722;12.012;2023-07-20T08:18:55;99967.19;;;17.36;100.00
19600;BME280;9947;57.722;12.012;2023-07-20T08:23:49;99978.06;;;17.13;100.00
19600;BME280;9947;57.722;12.012;2023-07-20T08:26:16;99973.06;;;16.93;100.00
19600;BME280;9947;57.722;12.012;2023-07-20T08:28:44;99978.72;;;16.84;100.00
19600;BME280;9947;57.722;12.012;2023-07-20T08:33:36;99974.31;;;17.14;100.00
19600;BME280;9947;57.722;12.012;2023-07-20T08:38:29;99975.53;;;17.42;100.00
19600;BME280;9947;57.722;12.012;2023-07-20T08:40:57;99971.94;;;18.33;100.00
19600;BME280;9947;57.722;12.012;2023-07-20T08:43:29;99970.22;;;18.47;100.00
19600;BME280;9947;57.722;12.012;2023-07-20T08:46:00;99965.09;;;18.67;100.00
19600;BME280;9947;57.722;12.012;2023-07-20T08:48:29;99972.50;;;18.43;96.80
19600;BME280;9947;57.722;12.012;2023-07-20T08:50:58;99974.88;;;18.61;96.66
19600;BME280;9947;57.722;12.012;2023-07-20T08:53:27;99978.59;;;18.98;96.54
19600;BME280;9947;57.722;12.012;2023-07-20T08:55:57;99982.28;;;19.05;93.63
19600;BME280;9947;57.722;12.012;2023-07-20T08:58:25;99978.16;;;18.42;97.58
19600;BME280;9947;57.722;12.012;2023-07-20T09:00:54;99981.88;;;18.11;97.77
19600;BME280;9947;57.722;12.012;2023-07-20T09:03:21;99964.31;;;17.60;100.00
19600;BME280;9947;57.722;12.012;2023-07-20T09:05:49;99981.22;;;17.33;100.00
19600;BME280;9947;57.722;12.012;2023-07-20T09:08:16;99986.06;;;17.22;100.00
19600;BME280;9947;57.722;12.012;2023-07-20T09:10:43;99982.06;;;17.02;100.00
19600;BME280;9947;57.722;12.012;2023-07-20T09:13:14;99990.94;;;17.35;100.00
19600;BME280;9947;57.722;12.012;2023-07-20T09:15:46;99985.44;;;17.66;100.00
19600;BME280;9947;57.722;12.012;2023-07-20T09:20:43;99983.91;;;17.10;100.00
19600;BME280;9947;57.722;12.012;2023-07-20T09:23:10;99992.81;;;17.04;100.00
19600;BME280;9947;57.722;12.012;2023-07-20T09:25:37;99985.75;;;17.48;100.00
19600;BME280;9947;57.722;12.012;2023-07-20T09:30:35;99990.25;;;17.72;100.00
19600;BME280;9947;57.722;12.012;2023-07-20T09:33:03;99989.97;;;18.05;100.00
19600;BME280;9947;57.722;12.012;2023-07-20T09:35:30;99993.56;;;18.05;97.02
19600;BME280;9947;57.722;12.012;2023-07-20T09:37:59;99992.22;;;18.39;100.00
19600;BME280;9947;57.722;12.012;2023-07-20T09:40:27;99990.06;;;18.34;99.47
19600;BME280;9947;57.722;12.012;2023-07-20T09:42:55;99998.22;;;18.19;100.00
19600;BME280;9947;57.722;12.012;2023-07-20T09:45:29;99992.06;;;18.03;99.22
19600;BME280;9947;57.722;12.012;2023-07-20T09:48:04;100004.09;;;17.63;100.00
19600;BME280;9947;57.722;12.012;2023-07-20T09:50:32;99996.56;;;17.73;100.00
19600;BME280;9947;57.722;12.012;2023-07-20T09:53:00;99998.81;;;18.30;100.00
19600;BME280;9947;57.722;12.012;2023-07-20T09:55:29;100003.34;;;18.37;100.00
19600;BME280;9947;57.722;12.012;2023-07-20T09:57:56;100003.34;;;18.23;98.73
19600;BME280;9947;57.722;12.012;2023-07-20T10:00:23;100003.16;;;18.39;96.09
19600;BME280;9947;57.722;12.012;2023-07-20T10:02:52;100013.81;;;18.34;100.00
19600;BME280;9947;57.722;12.012;2023-07-20T10:05:23;100003.03;;;17.95;100.00
19600;BME280;9947;57.722;12.012;2023-07-20T10:10:30;100010.28;;;18.10;100.00
19600;BME280;9947;57.722;12.012;2023-07-20T10:13:00;100008.84;;;18.14;100.00
19600;BME280;9947;57.722;12.012;2023-07-20T10:15:30;100002.63;;;17.83;100.00
19600;BME280;9947;57.722;12.012;2023-07-20T10:18:06;100007.81;;;17.39;100.00
19600;BME280;9947;57.722;12.012;2023-07-20T10:20:40;99998.09;;;17.44;100.00
19600;BME280;9947;57.722;12.012;2023-07-20T10:23:15;99997.91;;;17.07;100.00
19600;BME280;9947;57.722;12.012;2023-07-20T10:25:43;100006.69;;;17.56;100.00
19600;BME280;9947;57.722;12.012;2023-07-20T10:30:46;100000.84;;;18.13;100.00
19600;BME280;9947;57.722;12.012;2023-07-20T10:33:13;100005.38;;;18.21;100.00
19600;BME280;9947;57.722;12.012;2023-07-20T10:35:55;99998.97;;;18.13;100.00
19600;BME280;9947;57.722;12.012;2023-07-20T10:38:40;100003.25;;;17.70;100.00
19600;BME280;9947;57.722;12.012;2023-07-20T10:41:18;99999.22;;;18.04;100.00
19600;BME280;9947;57.722;12.012;2023-07-20T10:43:47;100006.50;;;17.88;100.00
19600;BME280;9947;57.722;12.012;2023-07-20T10:46:15;100006.97;;;17.69;100.00
19600;BME280;9947;57.722;12.012;2023-07-20T10:49:03;99997.34;;;17.50;100.00
19600;BME280;9947;57.722;12.012;2023-07-20T10:51:39;99998.28;;;17.35;100.00
19600;BME280;9947;57.722;12.012;2023-07-20T10:54:08;100009.22;;;16.95;100.00
19600;BME280;9947;57.722;12.012;2023-07-20T10:56:36;100009.00;;;16.66;100.00
19600;BME280;9947;57.722;12.012;2023-07-20T10:59:17;100005.38;;;17.21;100.00
19600;BME280;9947;57.722;12.012;2023-07-20T11:01:47;100019.16;;;17.27;100.00
19600;BME280;9947;57.722;12.012;2023-07-20T11:04:15;100012.66;;;17.29;100.00
19600;BME280;9947;57.722;12.012;2023-07-20T11:06:46;100011.81;;;17.28;100.00
19600;BME280;9947;57.722;12.012;2023-07-20T11:09:15;100018.00;;;17.14;100.00
19600;BME280;9947;57.722;12.012;2023-07-20T11:11:43;100016.66;;;17.18;100.00
19600;BME280;9947;57.722;12.012;2023-07-20T11:14:19;100018.38;;;17.11;100.00
19600;BME280;9947;57.722;12.012;2023-07-20T11:16:50;100009.81;;;17.53;100.00
19600;BME280;9947;57.722;12.012;2023-07-20T11:19:18;100023.28;;;17.85;100.00
19600;BME280;9947;57.722;12.012;2023-07-20T11:21:51;100023.16;;;17.79;100.00
19600;BME280;9947;57.722;12.012;2023-07-20T11:24:22;100017.28;;;17.28;100.00
19600;BME280;9947;57.722;12.012;2023-07-20T11:26:51;100007.25;;;17.20;100.00
19600;BME280;9947;57.722;12.012;2023-07-20T11:29:22;100014.06;;;17.55;100.00
19600;BME280;9947;57.722;12.012;2023-07-20T11:31:54;100019.94;;;17.75;100.00
19600;BME280;9947;57.722;12.012;2023-07-20T11:34:22;100012.53;;;18.07;100.00
19600;BME280;9947;57.722;12.012;2023-07-20T11:36:53;100018.06;;;18.36;98.61
19600;BME280;9947;57.722;12.012;2023-07-20T11:39:24;100016.63;;;18.63;100.00
19600;BME280;9947;57.722;12.012;2023-07-20T11:41:56;100006.41;;;18.57;100.00
19600;BME280;9947;57.722;12.012;2023-07-20T11:44:26;100023.28;;;18.46;100.00
19600;BME280;9947;57.722;12.012;2023-07-20T11:47:00;100019.69;;;18.45;100.00
19600;BME280;9947;57.722;12.012;2023-07-20T11:49:34;100023.59;;;18.51;100.00
19600;BME280;9947;57.722;12.012;2023-07-20T11:52:05;100013.47;;;18.74;100.00
19600;BME280;9947;57.722;12.012;2023-07-20T11:54:34;100015.34;;;18.89;100.00
19600;BME280;9947;57.722;12.012;2023-07-20T11:57:01;100014.56;;;18.95;95.87
19600;BME280;9947;57.722;12.012;2023-07-20T11:59:30;100018.06;;;18.89;99.05
19600;BME280;9947;57.722;12.012;2023-07-20T12:02:01;100016.47;;;18.94;98.16
19600;BME280;9947;57.722;12.012;2023-07-20T12:04:29;100021.84;;;18.73;100.00
19600;BME280;9947;57.722;12.012;2023-07-20T12:06:58;100019.50;;;18.47;100.00
19600;BME280;9947;57.722;12.012;2023-07-20T12:09:29;100018.19;;;18.81;100.00
19600;BME280;9947;57.722;12.012;2023-07-20T12:11:57;100015.38;;;18.51;100.00
19600;BME280;9947;57.722;12.012;2023-07-20T12:14:25;100022.31;;;18.91;100.00
19600;BME280;9947;57.722;12.012;2023-07-20T12:16:55;100025.44;;;19.03;100.00
19600;BME280;9947;57.722;12.012;2023-07-20T12:19:26;100017.19;;;19.32;98.64
19600;BME280;9947;57.722;12.012;2023-07-20T12:21:57;100013.50;;;19.40;100.00
19600;BME280;9947;57.722;12.012;2023-07-20T12:24:25;100012.34;;;19.64;100.00
19600;BME280;9947;57.722;12.012;2023-07-20T12:26:58;100015.88;;;19.79;98.71
19600;BME280;9947;57.722;12.012;2023-07-20T12:29:25;100022.91;;;19.67;97.91
19600;BME280;9947;57.722;12.012;2023-07-20T12:31:52;100030.44;;;19.14;100.00
19600;BME280;9947;57.722;12.012;2023-07-20T12:34:20;100023.16;;;19.36;98.00
19600;BME280;9947;57.722;12.012;2023-07-20T12:36:49;100024.72;;;19.45;100.00
19600;BME280;9947;57.722;12.012;2023-07-20T12:39:16;100018.72;;;19.20;100.00
19600;BME280;9947;57.722;12.012;2023-07-20T12:41:44;100027.88;;;19.57;100.00
19600;BME280;9947;57.722;12.012;2023-07-20T12:44:14;100030.66;;;19.49;99.42
19600;BME280;9947;57.722;12.012;2023-07-20T12:46:41;100026.63;;;19.45;99.48
19600;BME280;9947;57.722;12.012;2023-07-20T12:49:08;100024.69;;;19.09;100.00
19600;BME280;9947;57.722;12.012;2023-07-20T12:51:36;100030.31;;;19.22;100.00
19600;BME280;9947;57.722;12.012;2023-07-20T12:54:03;100023.56;;;18.89;100.00
19600;BME280;9947;57.722;12.012;2023-07-20T12:56:30;100020.69;;;18.67;100.00
19600;BME280;9947;57.722;12.012;2023-07-20T12:58:57;100025.19;;;18.60;100.00
19600;BME280;9947;57.722;12.012;2023-07-20T13:01:30;100030.66;;;18.60;100.00
19600;BME280;9947;57.722;12.012;2023-07-20T13:03:57;100030.53;;;18.39;100.00
19600;BME280;9947;57.722;12.012;2023-07-20T13:06:24;100023.91;;;18.33;100.00
19600;BME280;9947;57.722;12.012;2023-07-20T13:08:51;100024.97;;;18.09;100.00
19600;BME280;9947;57.722;12.012;2023-07-20T13:11:22;100028.00;;;18.14;100.00
19600;BME280;9947;57.722;12.012;2023-07-20T13:13:49;100022.03;;;18.34;100.00
19600;BME280;9947;57.722;12.012;2023-07-20T13:16:16;100027.09;;;18.60;100.00
19600;BME280;9947;57.722;12.012;2023-07-20T13:18:44;100027.94;;;18.60;100.00
19600;BME280;9947;57.722;12.012;2023-07-20T13:21:14;100028.97;;;18.59;100.00
19600;BME280;9947;57.722;12.012;2023-07-20T13:23:42;100033.06;;;18.26;100.00
19600;BME280;9947;57.722;12.012;2023-07-20T13:26:09;100036.09;;;18.31;100.00
19600;BME280;9947;57.722;12.012;2023-07-20T13:28:36;100042.25;;;18.47;100.00
19600;BME280;9947;57.722;12.012;2023-07-20T13:31:06;100034.09;;;18.02;100.00
19600;BME280;9947;57.722;12.012;2023-07-20T13:33:34;100032.44;;;18.15;100.00
19600;BME280;9947;57.722;12.012;2023-07-20T13:36:03;100038.09;;;17.91;100.00
19600;BME280;9947;57.722;12.012;2023-07-20T13:38:31;100035.84;;;17.64;100.00
19600;BME280;9947;57.722;12.012;2023-07-20T13:40:59;100029.34;;;17.73;100.00
19600;BME280;9947;57.722;12.012;2023-07-20T13:43:33;100042.97;;;17.81;100.00
19600;BME280;9947;57.722;12.012;2023-07-20T13:46:00;100041.16;;;17.96;100.00
19600;BME280;9947;57.722;12.012;2023-07-20T13:48:27;100032.88;;;18.04;100.00
19600;BME280;9947;57.722;12.012;2023-07-20T13:50:54;100035.19;;;18.15;100.00
19600;BME280;9947;57.722;12.012;2023-07-20T13:53:24;100039.00;;;18.29;100.00
19600;BME280;9947;57.722;12.012;2023-07-20T13:55:51;100042.66;;;18.22;100.00
19600;BME280;9947;57.722;12.012;2023-07-20T13:58:18;100034.47;;;17.99;100.00